• Join FlightAware (Why Join?)
  • Login
  • US Flag 
01:24PM EDT


 

Airport Tracker/Info


-or-


 

Live Flight TrackerFlight Track Log ✈ AWE3327 ✈ 15-Jun-2013 ✈ KDCA - KSRQ

Flight Track Log - Related Links

Times and Time Zones

All times are in EDT time to prevent confusion due to time zone crossing. See the AWE3327 flight status page for this flight to view local times or setup timezone preferences in your user account.

Time Position Orientation Groundspeed Altitude Reporting Facility
EDT Latitude Longitude Course Direction KTS MPH feet Rate Location/Type
09:09AM 38.8833 -77.0500 233° Southwest 152 175 1,600  Level Potomac TRACON
09:10AM 38.9167 -77.1000 311° West 219 252 3,100 1,740 Climbing Potomac TRACON
09:11AM 38.9667 -77.1500 322° Northwest 257 296 5,000 2,280 Climbing Potomac TRACON
09:12AM 38.5547 -77.3620 218° Southwest  Level FlightAware Approximate
09:13AM 38.4820 -77.4494 225° Southwest  Level FlightAware Approximate
09:14AM 38.4099 -77.5367 201° Southwest  Level FlightAware Approximate
09:14AM 38.8931 -77.2906 236° Southwest 274 315 10,400  Level Washington Center
09:15AM 38.3399 -77.6224 233° Southwest  Level FlightAware Approximate
09:15AM 38.8131 -77.3367 204° Southwest 299 344 12,400  Level Washington Center
09:16AM 38.7311 -77.3828 204° Southwest 313 360 14,300 1,860 Climbing Washington Center
09:17AM 38.6450 -77.4311 204° Southwest 331 381 16,200 1,440 Climbing Washington Center
09:18AM 38.5544 -77.4819 204° Southwest 345 397 17,300 1,260 Climbing Washington Center
09:19AM 38.4600 -77.5353 204° Southwest 360 414 18,800 1,740 Climbing Washington Center
09:20AM 38.3711 -77.6044 211° Southwest 366 421 20,800 1,860 Climbing Washington Center
09:21AM 38.2864 -77.6842 216° Southwest 378 435 22,500 1,500 Climbing Washington Center
09:22AM 38.1953 -77.7661 215° Southwest 392 451 23,900 1,500 Climbing Washington Center
09:23AM 38.1000 -77.8478 214° Southwest 408 470 25,600 1,440 Climbing Washington Center
09:24AM 38.0067 -77.9242 213° Southwest 413 475 26,900 900 Climbing Washington Center
09:25AM 37.9089 -78.0131 216° Southwest 413 475 27,500 540 Climbing Washington Center
09:26AM 37.8133 -78.0994 216° Southwest 418 481 28,000 240 Climbing Washington Center
09:27AM 37.7303 -78.1781 217° Southwest 430 495 28,000 300 Level Washington Center
09:28AM 37.6325 -78.2667 216° Southwest 425 489 28,700 840 Climbing Washington Center
09:29AM 37.5325 -78.3522 214° Southwest 430 495 29,700 900 Climbing Washington Center
09:30AM 37.4406 -78.4508 220° Southwest 441 507 30,500 840 Climbing Washington Center
09:31AM 37.3356 -78.5669 221° Southwest 453 521 31,500 780 Climbing Washington Center
09:32AM 37.2389 -78.6728 221° Southwest 453 521 32,100 660 Climbing Washington Center
09:33AM 37.1422 -78.7836 222° Southwest 458 527 32,900 420 Climbing Washington Center
09:34AM 37.0453 -78.8914 222° Southwest 468 539 33,000 480 Climbing Washington Center
09:35AM 36.9464 -78.9964 220° Southwest 473 544 33,900 480 Climbing Washington Center
09:36AM 36.8581 -79.0964 222° Southwest 479 551 34,000  Climbing Washington Center
09:37AM 36.7589 -79.2033 221° Southwest 474 545 34,000  Level Washington Center
09:38AM 36.6597 -79.3100 221° Southwest 474 545 34,000  Level Washington Center
09:39AM 36.5622 -79.4192 222° Southwest 474 545 34,000  Level Washington Center
09:40AM 36.4564 -79.5328 221° Southwest 474 545 34,000  Level Washington Center
09:41AM 36.2644 -79.7383 221° Southwest 485 558 34,000  Level Atlanta Center
09:42AM 36.1678 -79.8386 220° Southwest 480 552 34,000  Level Atlanta Center
09:43AM 36.0694 -79.9467 222° Southwest 475 547 34,000  Level Atlanta Center
09:44AM 35.9550 -80.0217 208° Southwest 470 541 34,000  Level Atlanta Center
09:45AM 35.8439 -80.0733 201° Southwest 475 547 34,000  Level Atlanta Center
09:46AM 35.7231 -80.1353 203° Southwest 475 547 34,000  Level Atlanta Center
09:47AM 35.5894 -80.2056 203° Southwest 475 547 34,000  Level Atlanta Center
09:48AM 35.4664 -80.2675 202° Southwest 475 547 34,000  Level Atlanta Center
09:49AM 35.3594 -80.3208 202° Southwest 475 547 34,000  Level Atlanta Center
09:50AM 35.2381 -80.3822 202° Southwest 474 545 34,000  Level Atlanta Center
09:53AM 34.9531 -80.5219 202° Southwest 479 551 34,000  Level Jacksonville Center
09:54AM 34.8333 -80.5833 203° Southwest 472 543 34,000  Level Jacksonville Center
09:55AM 34.7281 -80.6367 203° Southwest 472 543 34,000  Level Jacksonville Center
09:56AM 34.6017 -80.6981 202° Southwest 477 549 34,000  Level Jacksonville Center
09:57AM 34.4797 -80.7567 202° Southwest 489 563 34,000  Level Jacksonville Center
09:58AM 34.3578 -80.8175 202° Southwest 479 551 34,000  Level Jacksonville Center
09:59AM 34.2439 -80.8731 202° Southwest 468 539 34,000  Level Jacksonville Center
10:00AM 34.1217 -80.9308 201° Southwest 468 539 34,000  Level Jacksonville Center
10:01AM 34.0014 -80.9864 201° Southwest 468 539 34,000  Level Jacksonville Center
10:02AM 33.8647 -81.0492 201° Southwest 468 539 34,000  Level Jacksonville Center
10:03AM 33.7522 -81.0717 189° South 463 533 34,000  Level Jacksonville Center
10:04AM 33.6214 -81.1142 195° South 468 539 34,000  Level Jacksonville Center
10:05AM 33.5008 -81.1514 194° South 468 539 34,000  Level Jacksonville Center
10:06AM 33.3761 -81.1889 194° South 468 539 34,000  Level Jacksonville Center
10:07AM 33.2392 -81.2311 194° South 468 539 34,000  Level Jacksonville Center
10:08AM 33.1142 -81.2681 194° South 468 539 34,000  Level Jacksonville Center
10:09AM 32.9894 -81.3075 195° South 468 539 34,000  Level Jacksonville Center
10:10AM 32.8647 -81.3444 194° South 468 539 34,000  Level Jacksonville Center
10:11AM 32.7400 -81.3836 195° South 468 539 34,000  Level Jacksonville Center
10:12AM 32.6194 -81.4200 194° South 460 529 34,000  Level Jacksonville Center
10:13AM 32.4967 -81.4567 194° South 455 524 34,000  Level Jacksonville Center
10:14AM 32.3864 -81.4928 195° South 455 524 34,000  Level Jacksonville Center
10:15AM 32.2489 -81.5317 193° South 455 524 34,000  Level Jacksonville Center
10:16AM 32.1367 -81.5653 194° South 455 524 34,000  Level Jacksonville Center
10:17AM 32.0033 -81.6039 194° South 453 521 34,000  Level Jacksonville Center
10:18AM 31.8806 -81.6400 194° South 453 521 34,000  Level Jacksonville Center
10:19AM 31.7703 -81.6731 194° South 453 521 34,000  Level Jacksonville Center
10:20AM 31.6369 -81.7139 195° South 453 521 34,000  Level Jacksonville Center
10:21AM 31.5244 -81.7447 193° South 453 521 34,000  Level Jacksonville Center
10:22AM 31.3914 -81.7828 194° South 453 521 34,000  Level Jacksonville Center
10:23AM 31.2683 -81.8231 196° South 448 516 34,000  Level Jacksonville Center
10:24AM 31.1475 -81.8561 193° South 448 516 34,000  Level Jacksonville Center
10:25AM 31.0267 -81.8939 195° South 448 516 34,000  Level Jacksonville Center
10:26AM 30.9058 -81.9264 193° South 448 516 34,000  Level Jacksonville Center
10:27AM 30.7872 -81.9617 194° South 448 516 34,000  Level Jacksonville Center
10:28AM 30.6683 -81.9967 194° South 448 516 34,000  Level Jacksonville Center
10:29AM 30.5475 -82.0314 194° South 448 516 34,000  Level Jacksonville Center
10:30AM 30.4392 -82.0567 191° South 448 516 34,000  Level Jacksonville Center
10:31AM 30.3183 -82.0914 194° South 448 516 34,000  Level Jacksonville Center
10:32AM 30.1975 -82.1283 195° South 448 516 34,000  Level Jacksonville Center
10:33AM 30.0914 -82.1867 205° Southwest 448 516 34,000  Level Jacksonville Center
10:34AM 29.9917 -82.2956 223° Southwest 427 491 34,000 -660 Level Jacksonville Center
10:35AM 29.8917 -82.3367 200° South 439 505 32,700 -2,400 Descending Jacksonville Center
10:36AM 29.7703 -82.3039 167° South 411 473 29,200 -2,880 Descending Jacksonville Center
10:37AM 29.6492 -82.2642 164° South 417 480 27,000 -1,140 Descending Jacksonville Center
10:38AM 29.5217 -82.2458 173° South 448 516 27,000 -240 Level Jacksonville Center
10:39AM 29.3942 -82.2275 173° South 461 531 26,600 -1,380 Descending Jacksonville Center
10:40AM 29.2583 -82.2069 172° South 466 536 24,300 -2,340 Descending Jacksonville Center
10:41AM 29.1394 -82.1864 171° South 456 525 22,000 -2,340 Descending Jacksonville Center
10:42AM 29.0244 -82.1731 174° South 439 505 19,700 -2,340 Descending Jacksonville Center
10:43AM 28.9136 -82.1572 173° South 420 483 17,400 -2,340 Descending Jacksonville Center
10:44AM 28.8092 -82.1414 172° South 408 470 15,100 -1,800 Descending Jacksonville Center
10:46AM 28.6000 -82.1000 170° South 365 420 12,000 -1,080 Descending Tampa TRACON
10:47AM 28.5167 -82.1000 180° South 364 419 12,000  Level Tampa TRACON
10:48AM 28.4167 -82.0833 172° South 365 420 12,000 -240 Level Tampa TRACON
10:49AM 28.3000 -82.0667 173° South 363 418 11,600 -480 Descending Tampa TRACON
10:50AM 28.2000 -82.0833 188° South 349 402 11,000 -660 Descending Tampa TRACON
10:51AM 28.1167 -82.1000 190° South 318 366 10,400 -1,260 Descending Tampa TRACON
10:52AM 28.0500 -82.1333 204° Southwest 295 339 8,700 -1,680 Descending Tampa TRACON
10:53AM 27.9500 -82.1667 196° South 290 334 6,900 -1,320 Descending Tampa TRACON
10:54AM 27.8833 -82.1833 192° South 281 323 6,000 -660 Descending Tampa TRACON
10:55AM 27.8167 -82.2167 204° Southwest 279 321 5,700 -540 Descending Tampa TRACON
10:56AM 27.7500 -82.2500 204° Southwest 276 318 5,000 -360 Descending Tampa TRACON
10:57AM 27.6833 -82.3000 214° Southwest 276 318 5,000 -300 Level Tampa TRACON
10:58AM 27.6167 -82.3667 222° Southwest 280 322 4,400 -480 Descending Tampa TRACON
10:59AM 27.5500 -82.4000 204° Southwest 277 319 4,000 -780 Descending Tampa TRACON
11:00AM 27.4833 -82.4000 180° South 264 304 3,000 -840 Descending Tampa TRACON
11:01AM 27.4167 -82.4000 180° South 219 252 2,400 -480 Descending Tampa TRACON
11:02AM 27.3667 -82.3833 164° South 212 244 2,000 -300 Descending Tampa TRACON
11:03AM 27.3167 -82.4167 211° Southwest 200 230 1,800 -240 Descending Tampa TRACON